sensor_id;sensor_type;location;lat;lon;timestamp;pressure;altitude;pressure_sealevel;temperature;humidity
48636;BME280;34429;52.332;5.614;2023-01-28T00:01:35;102973.38;;;3.24;100.00
48636;BME280;34429;52.332;5.614;2023-01-28T00:04:04;102976.88;;;3.26;100.00
48636;BME280;34429;52.332;5.614;2023-01-28T00:06:32;102968.69;;;3.34;100.00
48636;BME280;34429;52.332;5.614;2023-01-28T00:09:01;102980.50;;;3.60;100.00
48636;BME280;34429;52.332;5.614;2023-01-28T00:11:29;102980.78;;;3.49;100.00
48636;BME280;34429;52.332;5.614;2023-01-28T00:14:00;102979.75;;;3.53;100.00
48636;BME280;34429;52.332;5.614;2023-01-28T00:16:29;102985.13;;;3.51;100.00
48636;BME280;34429;52.332;5.614;2023-01-28T00:18:57;102987.91;;;3.47;100.00
48636;BME280;34429;52.332;5.614;2023-01-28T00:21:26;102984.03;;;3.60;100.00
48636;BME280;34429;52.332;5.614;2023-01-28T00:23:55;102981.72;;;3.46;100.00
48636;BME280;34429;52.332;5.614;2023-01-28T00:26:24;102982.63;;;3.45;100.00
48636;BME280;34429;52.332;5.614;2023-01-28T00:28:52;102980.38;;;3.28;100.00
48636;BME280;34429;52.332;5.614;2023-01-28T00:31:25;102982.06;;;3.31;100.00
48636;BME280;34429;52.332;5.614;2023-01-28T00:33:55;102976.59;;;3.39;100.00
48636;BME280;34429;52.332;5.614;2023-01-28T00:36:25;102977.63;;;3.33;100.00
48636;BME280;34429;52.332;5.614;2023-01-28T00:38:55;102982.97;;;3.31;100.00
48636;BME280;34429;52.332;5.614;2023-01-28T00:41:26;102979.34;;;3.34;100.00
48636;BME280;34429;52.332;5.614;2023-01-28T00:43:55;102974.91;;;3.35;100.00
48636;BME280;34429;52.332;5.614;2023-01-28T00:46:26;102977.47;;;3.39;100.00
48636;BME280;34429;52.332;5.614;2023-01-28T00:48:55;102976.28;;;3.51;100.00
48636;BME280;34429;52.332;5.614;2023-01-28T00:51:23;102975.69;;;3.38;100.00
48636;BME280;34429;52.332;5.614;2023-01-28T00:53:52;102979.22;;;3.40;100.00
48636;BME280;34429;52.332;5.614;2023-01-28T00:56:20;102982.63;;;3.45;100.00
48636;BME280;34429;52.332;5.614;2023-01-28T00:58:49;102972.84;;;3.46;100.00
48636;BME280;34429;52.332;5.614;2023-01-28T01:01:19;102973.56;;;3.53;100.00
48636;BME280;34429;52.332;5.614;2023-01-28T01:03:52;102964.38;;;3.30;100.00
48636;BME280;34429;52.332;5.614;2023-01-28T01:06:23;102964.97;;;3.41;100.00
48636;BME280;34429;52.332;5.614;2023-01-28T01:08:52;102968.56;;;3.40;100.00
48636;BME280;34429;52.332;5.614;2023-01-28T01:11:20;102973.88;;;3.40;100.00
48636;BME280;34429;52.332;5.614;2023-01-28T01:13:50;102971.44;;;3.31;100.00
48636;BME280;34429;52.332;5.614;2023-01-28T01:16:20;102970.22;;;3.44;100.00
48636;BME280;34429;52.332;5.614;2023-01-28T01:18:52;102965.00;;;3.40;100.00
48636;BME280;34429;52.332;5.614;2023-01-28T01:21:24;102970.44;;;3.35;100.00
48636;BME280;34429;52.332;5.614;2023-01-28T01:23:53;102972.56;;;3.21;100.00
48636;BME280;34429;52.332;5.614;2023-01-28T01:26:22;102970.59;;;3.29;100.00
48636;BME280;34429;52.332;5.614;2023-01-28T01:28:57;102975.09;;;3.25;100.00
48636;BME280;34429;52.332;5.614;2023-01-28T01:31:26;102978.81;;;3.20;100.00
48636;BME280;34429;52.332;5.614;2023-01-28T01:33:57;102980.69;;;3.14;100.00
48636;BME280;34429;52.332;5.614;2023-01-28T01:36:26;102976.28;;;3.13;100.00
48636;BME280;34429;52.332;5.614;2023-01-28T01:38:54;102978.84;;;3.18;100.00
48636;BME280;34429;52.332;5.614;2023-01-28T01:41:26;102988.69;;;3.14;100.00
48636;BME280;34429;52.332;5.614;2023-01-28T01:43:56;102993.53;;;2.95;100.00
48636;BME280;34429;52.332;5.614;2023-01-28T01:46:31;102992.13;;;3.20;100.00
48636;BME280;34429;52.332;5.614;2023-01-28T01:49:07;102988.81;;;3.08;100.00
48636;BME280;34429;52.332;5.614;2023-01-28T01:51:40;102992.59;;;2.98;100.00
48636;BME280;34429;52.332;5.614;2023-01-28T01:54:08;102988.63;;;3.16;100.00
48636;BME280;34429;52.332;5.614;2023-01-28T01:56:39;102988.00;;;3.05;100.00
48636;BME280;34429;52.332;5.614;2023-01-28T01:59:11;102998.59;;;3.08;100.00
48636;BME280;34429;52.332;5.614;2023-01-28T02:01:43;102993.78;;;3.24;100.00
48636;BME280;34429;52.332;5.614;2023-01-28T02:04:18;103001.91;;;3.18;100.00
48636;BME280;34429;52.332;5.614;2023-01-28T02:06:49;102998.47;;;3.14;100.00
48636;BME280;34429;52.332;5.614;2023-01-28T02:09:23;103008.41;;;3.04;100.00
48636;BME280;34429;52.332;5.614;2023-01-28T02:11:54;103005.06;;;2.96;100.00
48636;BME280;34429;52.332;5.614;2023-01-28T02:14:26;102989.13;;;2.96;100.00
48636;BME280;34429;52.332;5.614;2023-01-28T02:16:56;102999.75;;;2.96;100.00
48636;BME280;34429;52.332;5.614;2023-01-28T02:19:31;102998.47;;;3.14;100.00
48636;BME280;34429;52.332;5.614;2023-01-28T02:22:08;103010.22;;;3.04;100.00
48636;BME280;34429;52.332;5.614;2023-01-28T02:24:59;103009.16;;;3.11;100.00
48636;BME280;34429;52.332;5.614;2023-01-28T02:27:34;103007.44;;;3.08;100.00
48636;BME280;34429;52.332;5.614;2023-01-28T02:30:12;103003.63;;;3.20;100.00
48636;BME280;34429;52.332;5.614;2023-01-28T02:32:53;103004.19;;;2.95;100.00
48636;BME280;34429;52.332;5.614;2023-01-28T02:35:28;103003.88;;;3.09;100.00
48636;BME280;34429;52.332;5.614;2023-01-28T02:38:04;103013.72;;;3.06;100.00
48636;BME280;34429;52.332;5.614;2023-01-28T02:40:37;103012.88;;;3.04;100.00
48636;BME280;34429;52.332;5.614;2023-01-28T02:43:33;103010.34;;;2.97;100.00
48636;BME280;34429;52.332;5.614;2023-01-28T02:46:12;103017.44;;;2.97;100.00
48636;BME280;34429;52.332;5.614;2023-01-28T02:48:55;103013.94;;;2.95;100.00
48636;BME280;34429;52.332;5.614;2023-01-28T02:51:31;103007.97;;;2.84;100.00
48636;BME280;34429;52.332;5.614;2023-01-28T02:54:10;103003.63;;;2.79;100.00
48636;BME280;34429;52.332;5.614;2023-01-28T02:56:41;102999.78;;;2.93;100.00
48636;BME280;34429;52.332;5.614;2023-01-28T02:59:17;102996.16;;;2.97;100.00
48636;BME280;34429;52.332;5.614;2023-01-28T03:02:09;102994.63;;;3.26;100.00
48636;BME280;34429;52.332;5.614;2023-01-28T03:04:43;102994.94;;;3.12;100.00
48636;BME280;34429;52.332;5.614;2023-01-28T03:07:15;102997.78;;;3.04;100.00
48636;BME280;34429;52.332;5.614;2023-01-28T03:09:46;102996.09;;;3.00;100.00
48636;BME280;34429;52.332;5.614;2023-01-28T03:12:15;102990.63;;;3.08;100.00
48636;BME280;34429;52.332;5.614;2023-01-28T03:15:00;102993.34;;;3.03;100.00
48636;BME280;34429;52.332;5.614;2023-01-28T03:17:46;102992.38;;;3.07;100.00
48636;BME280;34429;52.332;5.614;2023-01-28T03:20:36;102987.81;;;3.14;100.00
48636;BME280;34429;52.332;5.614;2023-01-28T03:23:22;102993.13;;;3.14;100.00
48636;BME280;34429;52.332;5.614;2023-01-28T03:26:07;102992.13;;;3.20;100.00
48636;BME280;34429;52.332;5.614;2023-01-28T03:28:49;102990.78;;;3.00;100.00
48636;BME280;34429;52.332;5.614;2023-01-28T03:31:30;102983.78;;;2.94;100.00
48636;BME280;34429;52.332;5.614;2023-01-28T03:34:16;102986.13;;;3.10;100.00
48636;BME280;34429;52.332;5.614;2023-01-28T03:36:58;102990.66;;;3.06;100.00
48636;BME280;34429;52.332;5.614;2023-01-28T03:39:28;102984.63;;;2.98;100.00
48636;BME280;34429;52.332;5.614;2023-01-28T03:41:58;102991.94;;;2.87;100.00
48636;BME280;34429;52.332;5.614;2023-01-28T03:44:27;102996.94;;;3.02;100.00
48636;BME280;34429;52.332;5.614;2023-01-28T03:47:08;102995.84;;;3.12;100.00
48636;BME280;34429;52.332;5.614;2023-01-28T03:49:41;102995.97;;;3.05;100.00
48636;BME280;34429;52.332;5.614;2023-01-28T03:52:10;102991.47;;;3.08;100.00
48636;BME280;34429;52.332;5.614;2023-01-28T03:54:38;103001.97;;;3.14;100.00
48636;BME280;34429;52.332;5.614;2023-01-28T03:57:07;103010.81;;;3.15;100.00
48636;BME280;34429;52.332;5.614;2023-01-28T03:59:35;103008.66;;;2.93;100.00
48636;BME280;34429;52.332;5.614;2023-01-28T04:02:03;103003.56;;;2.83;100.00
48636;BME280;34429;52.332;5.614;2023-01-28T04:04:32;102997.03;;;2.99;100.00
48636;BME280;34429;52.332;5.614;2023-01-28T04:07:05;103003.38;;;2.92;100.00
48636;BME280;34429;52.332;5.614;2023-01-28T04:09:35;103004.41;;;2.85;100.00
48636;BME280;34429;52.332;5.614;2023-01-28T04:12:04;102998.44;;;2.73;100.00
48636;BME280;34429;52.332;5.614;2023-01-28T04:14:33;103009.09;;;2.73;100.00
48636;BME280;34429;52.332;5.614;2023-01-28T04:17:01;103018.91;;;2.70;100.00
48636;BME280;34429;52.332;5.614;2023-01-28T04:19:30;103017.50;;;2.94;100.00
48636;BME280;34429;52.332;5.614;2023-01-28T04:22:05;103023.72;;;2.93;100.00
48636;BME280;34429;52.332;5.614;2023-01-28T04:24:34;103025.78;;;2.82;100.00
48636;BME280;34429;52.332;5.614;2023-01-28T04:27:03;103027.66;;;2.75;100.00
48636;BME280;34429;52.332;5.614;2023-01-28T04:29:31;103020.97;;;2.99;100.00
48636;BME280;34429;52.332;5.614;2023-01-28T04:31:59;103019.94;;;3.05;100.00
48636;BME280;34429;52.332;5.614;2023-01-28T04:34:28;103020.06;;;2.98;100.00
48636;BME280;34429;52.332;5.614;2023-01-28T04:36:56;103030.81;;;2.94;100.00
48636;BME280;34429;52.332;5.614;2023-01-28T04:39:27;103030.16;;;2.83;100.00
48636;BME280;34429;52.332;5.614;2023-01-28T04:41:55;103036.16;;;2.92;100.00
48636;BME280;34429;52.332;5.614;2023-01-28T04:46:13;103028.50;;;2.78;100.00
48636;BME280;34429;52.332;5.614;2023-01-28T04:48:42;103019.84;;;2.67;100.00
48636;BME280;34429;52.332;5.614;2023-01-28T04:51:10;103016.41;;;2.62;100.00
48636;BME280;34429;52.332;5.614;2023-01-28T04:53:45;103004.97;;;2.58;100.00
48636;BME280;34429;52.332;5.614;2023-01-28T04:56:13;103006.75;;;2.58;100.00
48636;BME280;34429;52.332;5.614;2023-01-28T04:58:41;103003.91;;;2.67;100.00
48636;BME280;34429;52.332;5.614;2023-01-28T05:01:12;103012.59;;;2.74;100.00
48636;BME280;34429;52.332;5.614;2023-01-28T05:03:41;103011.59;;;2.79;100.00
48636;BME280;34429;52.332;5.614;2023-01-28T05:06:09;103015.97;;;2.84;100.00
48636;BME280;34429;52.332;5.614;2023-01-28T05:08:37;103007.97;;;2.84;100.00
48636;BME280;34429;52.332;5.614;2023-01-28T05:11:06;103010.69;;;2.82;100.00
48636;BME280;34429;52.332;5.614;2023-01-28T05:13:34;103001.88;;;2.80;100.00
48636;BME280;34429;52.332;5.614;2023-01-28T05:16:05;103000.84;;;2.87;100.00
48636;BME280;34429;52.332;5.614;2023-01-28T05:18:36;103007.09;;;2.85;100.00
48636;BME280;34429;52.332;5.614;2023-01-28T05:21:04;103008.66;;;2.93;100.00
48636;BME280;34429;52.332;5.614;2023-01-28T05:23:33;103016.69;;;2.92;100.00
48636;BME280;34429;52.332;5.614;2023-01-28T05:26:01;103020.97;;;2.99;100.00
48636;BME280;34429;52.332;5.614;2023-01-28T05:28:29;103020.09;;;2.97;100.00
48636;BME280;34429;52.332;5.614;2023-01-28T05:31:02;103021.97;;;2.93;100.00
48636;BME280;34429;52.332;5.614;2023-01-28T05:33:30;103026.41;;;2.93;100.00
48636;BME280;34429;52.332;5.614;2023-01-28T05:36:02;103018.56;;;2.87;100.00
48636;BME280;34429;52.332;5.614;2023-01-28T05:38:30;103018.06;;;2.68;100.00
48636;BME280;34429;52.332;5.614;2023-01-28T05:40:59;103010.53;;;2.46;100.00
48636;BME280;34429;52.332;5.614;2023-01-28T05:43:27;103023.81;;;2.48;100.00
48636;BME280;34429;52.332;5.614;2023-01-28T05:45:55;103010.59;;;2.43;100.00
48636;BME280;34429;52.332;5.614;2023-01-28T05:48:24;103005.88;;;2.57;100.00
48636;BME280;34429;52.332;5.614;2023-01-28T05:50:52;103006.63;;;2.64;100.00
48636;BME280;34429;52.332;5.614;2023-01-28T05:53:23;103014.84;;;2.52;100.00
48636;BME280;34429;52.332;5.614;2023-01-28T05:55:52;103015.00;;;2.44;100.00
48636;BME280;34429;52.332;5.614;2023-01-28T05:58:21;103007.84;;;2.48;100.00
48636;BME280;34429;52.332;5.614;2023-01-28T06:00:53;103006.03;;;2.50;100.00
48636;BME280;34429;52.332;5.614;2023-01-28T06:03:21;103013.91;;;2.54;100.00
48636;BME280;34429;52.332;5.614;2023-01-28T06:05:50;103019.47;;;2.42;100.00
48636;BME280;34429;52.332;5.614;2023-01-28T06:08:18;103011.41;;;2.47;100.00
48636;BME280;34429;52.332;5.614;2023-01-28T06:10:49;103016.47;;;2.59;100.00
48636;BME280;34429;52.332;5.614;2023-01-28T06:13:18;103014.59;;;2.64;100.00
48636;BME280;34429;52.332;5.614;2023-01-28T06:15:48;103021.41;;;2.77;100.00
48636;BME280;34429;52.332;5.614;2023-01-28T06:18:16;103011.75;;;2.73;100.00
48636;BME280;34429;52.332;5.614;2023-01-28T06:20:44;103006.66;;;2.62;100.00
48636;BME280;34429;52.332;5.614;2023-01-28T06:23:13;103007.53;;;2.63;100.00
48636;BME280;34429;52.332;5.614;2023-01-28T06:25:41;103014.59;;;2.64;100.00
48636;BME280;34429;52.332;5.614;2023-01-28T06:28:12;103021.56;;;2.71;100.00
48636;BME280;34429;52.332;5.614;2023-01-28T06:32:52;103015.03;;;2.42;100.00
48636;BME280;34429;52.332;5.614;2023-01-28T06:35:21;103015.13;;;2.38;100.00
48636;BME280;34429;52.332;5.614;2023-01-28T06:37:50;103022.91;;;2.47;100.00
48636;BME280;34429;52.332;5.614;2023-01-28T06:40:19;103027.53;;;2.37;100.00
48636;BME280;34429;52.332;5.614;2023-01-28T06:42:49;103024.16;;;2.29;100.00
48636;BME280;34429;52.332;5.614;2023-01-28T06:45:17;103030.28;;;2.31;100.00
48636;BME280;34429;52.332;5.614;2023-01-28T06:47:46;103035.44;;;2.42;100.00
48636;BME280;34429;52.332;5.614;2023-01-28T06:50:17;103044.06;;;2.52;100.00
48636;BME280;34429;52.332;5.614;2023-01-28T06:52:45;103054.59;;;2.59;100.00
48636;BME280;34429;52.332;5.614;2023-01-28T06:55:13;103061.56;;;2.65;100.00
48636;BME280;34429;52.332;5.614;2023-01-28T06:57:42;103053.03;;;2.48;100.00
48636;BME280;34429;52.332;5.614;2023-01-28T07:00:12;103048.75;;;2.40;100.00
48636;BME280;34429;52.332;5.614;2023-01-28T07:02:41;103042.72;;;2.31;100.00
48636;BME280;34429;52.332;5.614;2023-01-28T07:05:09;103045.16;;;2.41;100.00
48636;BME280;34429;52.332;5.614;2023-01-28T07:07:41;103038.03;;;2.43;100.00
48636;BME280;34429;52.332;5.614;2023-01-28T07:10:10;103041.41;;;2.52;100.00
48636;BME280;34429;52.332;5.614;2023-01-28T07:12:39;103045.13;;;2.44;100.00
48636;BME280;34429;52.332;5.614;2023-01-28T07:15:08;103039.75;;;2.48;100.00
48636;BME280;34429;52.332;5.614;2023-01-28T07:17:39;103045.03;;;2.49;100.00
48636;BME280;34429;52.332;5.614;2023-01-28T07:20:10;103052.91;;;2.54;100.00
48636;BME280;34429;52.332;5.614;2023-01-28T07:22:42;103049.31;;;2.56;100.00
48636;BME280;34429;52.332;5.614;2023-01-28T07:25:13;103042.16;;;2.60;100.00
48636;BME280;34429;52.332;5.614;2023-01-28T07:27:46;103056.91;;;2.75;100.00
48636;BME280;34429;52.332;5.614;2023-01-28T07:30:17;103052.63;;;2.68;100.00
48636;BME280;34429;52.332;5.614;2023-01-28T07:32:46;103053.53;;;2.68;100.00
48636;BME280;34429;52.332;5.614;2023-01-28T07:35:14;103053.53;;;2.68;100.00
48636;BME280;34429;52.332;5.614;2023-01-28T07:37:50;103062.34;;;2.70;100.00
48636;BME280;34429;52.332;5.614;2023-01-28T07:40:25;103061.47;;;2.70;100.00
48636;BME280;34429;52.332;5.614;2023-01-28T07:42:53;103063.19;;;2.71;100.00
48636;BME280;34429;52.332;5.614;2023-01-28T07:45:23;103054.50;;;2.62;100.00
48636;BME280;34429;52.332;5.614;2023-01-28T07:47:54;103057.34;;;2.55;100.00
48636;BME280;34429;52.332;5.614;2023-01-28T07:50:23;103069.53;;;2.65;100.00
48636;BME280;34429;52.332;5.614;2023-01-28T07:52:54;103063.13;;;2.75;100.00
48636;BME280;34429;52.332;5.614;2023-01-28T07:55:23;103068.31;;;2.82;100.00
48636;BME280;34429;52.332;5.614;2023-01-28T07:57:52;103070.91;;;2.85;100.00
48636;BME280;34429;52.332;5.614;2023-01-28T08:00:22;103067.00;;;3.03;100.00
48636;BME280;34429;52.332;5.614;2023-01-28T08:02:55;103070.03;;;2.86;100.00
48636;BME280;34429;52.332;5.614;2023-01-28T08:05:25;103071.72;;;2.88;100.00
48636;BME280;34429;52.332;5.614;2023-01-28T08:07:56;103068.03;;;2.95;100.00
48636;BME280;34429;52.332;5.614;2023-01-28T08:10:25;103076.09;;;2.91;100.00
48636;BME280;34429;52.332;5.614;2023-01-28T08:12:54;103077.88;;;2.92;100.00
48636;BME280;34429;52.332;5.614;2023-01-28T08:15:24;103085.75;;;2.96;100.00
48636;BME280;34429;52.332;5.614;2023-01-28T08:17:53;103081.22;;;3.00;100.00
48636;BME280;34429;52.332;5.614;2023-01-28T08:20:21;103080.41;;;2.96;100.00
48636;BME280;34429;52.332;5.614;2023-01-28T08:22:50;103081.78;;;2.72;100.00
48636;BME280;34429;52.332;5.614;2023-01-28T08:25:21;103088.03;;;2.71;100.00
48636;BME280;34429;52.332;5.614;2023-01-28T08:27:50;103092.19;;;2.85;100.00
48636;BME280;34429;52.332;5.614;2023-01-28T08:30:18;103086.53;;;3.00;100.00
48636;BME280;34429;52.332;5.614;2023-01-28T08:32:46;103081.84;;;3.13;100.00
48636;BME280;34429;52.332;5.614;2023-01-28T08:35:15;103091.25;;;3.29;100.00
48636;BME280;34429;52.332;5.614;2023-01-28T08:37:43;103092.97;;;3.32;100.00
48636;BME280;34429;52.332;5.614;2023-01-28T08:40:11;103102.28;;;3.51;100.00
48636;BME280;34429;52.332;5.614;2023-01-28T08:42:48;103102.72;;;3.33;100.00
48636;BME280;34429;52.332;5.614;2023-01-28T08:45:17;103107.31;;;3.25;100.00
48636;BME280;34429;52.332;5.614;2023-01-28T08:47:47;103115.75;;;3.03;100.00
48636;BME280;34429;52.332;5.614;2023-01-28T08:50:16;103109.16;;;3.23;100.00
48636;BME280;34429;52.332;5.614;2023-01-28T08:52:45;103114.28;;;3.30;100.00
48636;BME280;34429;52.332;5.614;2023-01-28T08:55:14;103124.75;;;3.38;100.00
48636;BME280;34429;52.332;5.614;2023-01-28T08:57:43;103115.41;;;3.61;100.00
48636;BME280;34429;52.332;5.614;2023-01-28T09:00:15;103107.94;;;3.38;100.00
48636;BME280;34429;52.332;5.614;2023-01-28T09:02:43;103106.84;;;3.04;100.00
48636;BME280;34429;52.332;5.614;2023-01-28T09:05:12;103120.03;;;3.10;100.00
48636;BME280;34429;52.332;5.614;2023-01-28T09:07:41;103127.66;;;3.27;100.00
48636;BME280;34429;52.332;5.614;2023-01-28T09:10:10;103123.03;;;3.36;100.00
48636;BME280;34429;52.332;5.614;2023-01-28T09:12:38;103126.53;;;3.39;100.00
48636;BME280;34429;52.332;5.614;2023-01-28T09:15:08;103127.75;;;3.63;100.00
48636;BME280;34429;52.332;5.614;2023-01-28T09:17:40;103130.03;;;3.41;100.00
48636;BME280;34429;52.332;5.614;2023-01-28T09:20:09;103137.09;;;3.42;100.00
48636;BME280;34429;52.332;5.614;2023-01-28T09:22:41;103124.16;;;3.25;100.00
48636;BME280;34429;52.332;5.614;2023-01-28T09:25:09;103120.22;;;3.43;100.00
48636;BME280;34429;52.332;5.614;2023-01-28T09:27:38;103139.34;;;3.62;100.00
48636;BME280;34429;52.332;5.614;2023-01-28T09:30:08;103145.84;;;3.47;100.00
48636;BME280;34429;52.332;5.614;2023-01-28T09:32:40;103142.81;;;3.24;100.00
48636;BME280;34429;52.332;5.614;2023-01-28T09:35:08;103135.69;;;3.26;100.00
48636;BME280;34429;52.332;5.614;2023-01-28T09:37:39;103138.81;;;3.03;100.00
48636;BME280;34429;52.332;5.614;2023-01-28T09:40:11;103139.56;;;3.11;100.00
48636;BME280;34429;52.332;5.614;2023-01-28T09:42:51;103133.78;;;2.89;100.00
48636;BME280;34429;52.332;5.614;2023-01-28T09:45:31;103130.09;;;2.94;100.00
48636;BME280;34429;52.332;5.614;2023-01-28T09:48:07;103128.31;;;2.96;100.00
48636;BME280;34429;52.332;5.614;2023-01-28T09:50:40;103145.59;;;2.72;100.00
48636;BME280;34429;52.332;5.614;2023-01-28T09:53:11;103142.50;;;2.95;100.00
48636;BME280;34429;52.332;5.614;2023-01-28T09:55:45;103151.38;;;2.96;100.00
48636;BME280;34429;52.332;5.614;2023-01-28T09:58:15;103151.34;;;2.97;100.00
48636;BME280;34429;52.332;5.614;2023-01-28T10:00:50;103156.72;;;2.93;100.00
48636;BME280;34429;52.332;5.614;2023-01-28T10:03:39;103162.78;;;3.01;100.00
48636;BME280;34429;52.332;5.614;2023-01-28T10:06:18;103159.78;;;3.20;100.00
48636;BME280;34429;52.332;5.614;2023-01-28T10:09:05;103154.97;;;3.36;100.00
48636;BME280;34429;52.332;5.614;2023-01-28T10:11:49;103158.84;;;3.63;100.00
48636;BME280;34429;52.332;5.614;2023-01-28T10:14:29;103148.22;;;3.61;100.00
48636;BME280;34429;52.332;5.614;2023-01-28T10:17:06;103143.63;;;3.68;100.00
48636;BME280;34429;52.332;5.614;2023-01-28T10:19:43;103146.66;;;3.53;100.00
48636;BME280;34429;52.332;5.614;2023-01-28T10:22:18;103145.66;;;3.57;100.00
48636;BME280;34429;52.332;5.614;2023-01-28T10:24:53;103139.59;;;3.50;100.00
48636;BME280;34429;52.332;5.614;2023-01-28T10:27:26;103139.38;;;3.61;100.00
48636;BME280;34429;52.332;5.614;2023-01-28T10:29:57;103145.16;;;3.78;100.00
48636;BME280;34429;52.332;5.614;2023-01-28T10:32:29;103141.78;;;3.72;100.00
48636;BME280;34429;52.332;5.614;2023-01-28T10:35:01;103140.88;;;3.73;100.00
48636;BME280;34429;52.332;5.614;2023-01-28T10:37:33;103132.50;;;3.50;100.00
48636;BME280;34429;52.332;5.614;2023-01-28T10:40:03;103137.88;;;3.49;100.00
48636;BME280;34429;52.332;5.614;2023-01-28T10:42:33;103135.09;;;3.54;100.00
48636;BME280;34429;52.332;5.614;2023-01-28T10:45:06;103136.13;;;3.46;100.00
48636;BME280;34429;52.332;5.614;2023-01-28T10:47:39;103124.22;;;3.63;100.00
48636;BME280;34429;52.332;5.614;2023-01-28T10:50:15;103120.78;;;3.58;100.00
48636;BME280;34429;52.332;5.614;2023-01-28T10:52:55;103112.47;;;3.72;100.00
48636;BME280;34429;52.332;5.614;2023-01-28T10:55:26;103100.16;;;3.67;100.00
48636;BME280;34429;52.332;5.614;2023-01-28T10:57:57;103094.97;;;3.97;100.00
48636;BME280;34429;52.332;5.614;2023-01-28T11:00:29;103084.59;;;3.86;100.00
48636;BME280;34429;52.332;5.614;2023-01-28T11:02:59;103081.22;;;3.78;100.00
48636;BME280;34429;52.332;5.614;2023-01-28T11:05:30;103076.25;;;4.02;100.00
48636;BME280;34429;52.332;5.614;2023-01-28T11:08:03;103063.97;;;3.95;100.00
48636;BME280;34429;52.332;5.614;2023-01-28T11:10:35;103056.06;;;3.92;100.00
48636;BME280;34429;52.332;5.614;2023-01-28T11:13:13;103051.44;;;3.98;100.00
48636;BME280;34429;52.332;5.614;2023-01-28T11:15:46;103046.28;;;3.92;100.00
48636;BME280;34429;52.332;5.614;2023-01-28T11:18:18;103041.06;;;3.88;100.00
48636;BME280;34429;52.332;5.614;2023-01-28T11:20:53;103045.78;;;4.11;100.00
48636;BME280;34429;52.332;5.614;2023-01-28T11:23:24;103033.34;;;4.11;100.00
48636;BME280;34429;52.332;5.614;2023-01-28T11:26:05;103025.59;;;4.02;100.00
48636;BME280;34429;52.332;5.614;2023-01-28T11:28:38;103015.16;;;4.27;100.00
48636;BME280;34429;52.332;5.614;2023-01-28T11:31:09;103014.94;;;4.35;100.00
48636;BME280;34429;52.332;5.614;2023-01-28T11:33:43;103003.94;;;4.14;100.00
48636;BME280;34429;52.332;5.614;2023-01-28T11:36:17;103004.34;;;3.99;100.00
48636;BME280;34429;52.332;5.614;2023-01-28T11:38:48;103007.28;;;4.23;100.00
48636;BME280;34429;52.332;5.614;2023-01-28T11:41:18;103006.13;;;4.31;100.00
48636;BME280;34429;52.332;5.614;2023-01-28T11:43:50;103011.00;;;4.48;100.00
48636;BME280;34429;52.332;5.614;2023-01-28T11:46:39;103016.53;;;4.42;100.00
48636;BME280;34429;52.332;5.614;2023-01-28T11:49:20;103031.13;;;4.60;100.00
48636;BME280;34429;52.332;5.614;2023-01-28T11:51:55;103035.44;;;4.33;100.00
48636;BME280;34429;52.332;5.614;2023-01-28T11:54:35;103033.78;;;4.29;100.00
48636;BME280;34429;52.332;5.614;2023-01-28T11:57:17;103039.63;;;4.42;100.00
48636;BME280;34429;52.332;5.614;2023-01-28T12:00:03;103038.50;;;4.50;100.00
48636;BME280;34429;52.332;5.614;2023-01-28T12:02:45;103041.09;;;4.85;100.00
48636;BME280;34429;52.332;5.614;2023-01-28T12:05:26;103047.53;;;4.78;100.00
48636;BME280;34429;52.332;5.614;2023-01-28T12:08:05;103045.31;;;4.92;100.00
48636;BME280;34429;52.332;5.614;2023-01-28T12:10:42;103042.69;;;5.20;100.00
48636;BME280;34429;52.332;5.614;2023-01-28T12:13:27;103054.28;;;5.19;100.00
48636;BME280;34429;52.332;5.614;2023-01-28T12:16:16;103057.78;;;5.21;100.00
48636;BME280;34429;52.332;5.614;2023-01-28T12:18:58;103053.94;;;5.32;100.00
48636;BME280;34429;52.332;5.614;2023-01-28T12:21:40;103048.19;;;5.16;100.00
48636;BME280;34429;52.332;5.614;2023-01-28T12:24:23;103045.22;;;5.25;100.00
48636;BME280;34429;52.332;5.614;2023-01-28T12:27:05;103038.00;;;5.29;100.00
48636;BME280;34429;52.332;5.614;2023-01-28T12:29:42;103040.13;;;5.17;100.00
48636;BME280;34429;52.332;5.614;2023-01-28T12:32:24;103038.00;;;5.29;100.00
48636;BME280;34429;52.332;5.614;2023-01-28T12:35:19;103030.66;;;5.07;100.00
48636;BME280;34429;52.332;5.614;2023-01-28T12:37:59;103025.22;;;5.38;100.00
48636;BME280;34429;52.332;5.614;2023-01-28T12:40:52;103022.34;;;5.44;100.00
48636;BME280;34429;52.332;5.614;2023-01-28T12:43:31;103024.59;;;5.30;100.00
48636;BME280;34429;52.332;5.614;2023-01-28T12:46:07;103004.22;;;5.54;100.00
48636;BME280;34429;52.332;5.614;2023-01-28T12:48:40;103001.97;;;5.69;100.00
48636;BME280;34429;52.332;5.614;2023-01-28T12:51:13;103001.06;;;5.70;100.00
48636;BME280;34429;52.332;5.614;2023-01-28T12:53:46;102994.38;;;5.83;100.00
48636;BME280;34429;52.332;5.614;2023-01-28T12:56:22;102987.28;;;5.55;100.00
48636;BME280;34429;52.332;5.614;2023-01-28T12:58:56;102963.44;;;6.03;100.00
48636;BME280;34429;52.332;5.614;2023-01-28T13:01:28;102956.50;;;5.97;100.00
48636;BME280;34429;52.332;5.614;2023-01-28T13:04:02;102963.09;;;6.12;100.00
48636;BME280;34429;52.332;5.614;2023-01-28T13:06:34;102965.09;;;5.78;100.00
48636;BME280;34429;52.332;5.614;2023-01-28T13:09:14;102965.69;;;5.35;100.00
48636;BME280;34429;52.332;5.614;2023-01-28T13:11:48;102961.84;;;5.43;100.00
48636;BME280;34429;52.332;5.614;2023-01-28T13:14:27;102960.91;;;5.18;100.00
48636;BME280;34429;52.332;5.614;2023-01-28T13:16:56;102945.66;;;5.21;100.00
48636;BME280;34429;52.332;5.614;2023-01-28T13:19:36;102954.31;;;5.01;100.00
48636;BME280;34429;52.332;5.614;2023-01-28T13:22:11;102946.13;;;5.34;100.00